createdAt,value
2017-11-03T00:02:13.280Z,39.93
2017-11-03T00:04:47.209Z,35.87
2017-11-03T00:07:21.025Z,54.33
2017-11-03T00:09:55.544Z,40.00
2017-11-03T00:12:30.550Z,41.00
2017-11-03T00:15:04.593Z,34.27
2017-11-03T00:17:38.429Z,38.57
2017-11-03T00:20:13.114Z,34.83
2017-11-03T00:22:47.243Z,37.40
2017-11-03T00:25:21.226Z,33.93
2017-11-03T00:27:55.749Z,39.20
2017-11-03T00:30:29.889Z,37.77
2017-11-03T00:33:03.897Z,35.67
2017-11-03T00:35:37.907Z,43.47
2017-11-03T00:38:11.671Z,36.13
2017-11-03T00:40:45.492Z,39.07
2017-11-03T00:43:19.609Z,35.53
2017-11-03T00:45:55.591Z,36.53
2017-11-03T00:48:29.393Z,36.03
2017-11-03T00:51:03.893Z,34.20
2017-11-03T00:53:38.421Z,38.07
2017-11-03T00:56:12.010Z,35.90
2017-11-03T00:58:46.054Z,37.00
2017-11-03T01:01:19.769Z,34.63
2017-11-03T01:03:53.458Z,41.07
2017-11-03T01:06:28.078Z,32.50
2017-11-03T01:09:02.075Z,34.70
2017-11-03T01:11:36.600Z,38.17
2017-11-03T01:14:10.511Z,34.97
2017-11-03T01:16:44.520Z,39.60
2017-11-03T01:19:18.305Z,33.90
2017-11-03T01:21:52.255Z,46.90
2017-11-03T01:24:27.064Z,38.90
2017-11-03T01:27:01.662Z,37.30
2017-11-03T01:29:35.841Z,44.10
2017-11-03T01:32:09.589Z,37.77
2017-11-03T01:34:43.233Z,37.43
2017-11-03T01:37:18.139Z,35.70
2017-11-03T01:39:52.050Z,38.97
2017-11-03T01:42:26.109Z,39.47
2017-11-03T01:45:00.239Z,37.70
2017-11-03T01:47:33.887Z,38.43
2017-11-03T01:50:07.974Z,37.70
2017-11-03T01:52:41.931Z,39.47
2017-11-03T01:55:16.301Z,36.70
2017-11-03T01:57:51.028Z,40.53
2017-11-03T02:00:24.688Z,45.20
2017-11-03T02:02:58.535Z,39.03
2017-11-03T02:05:33.910Z,47.00
2017-11-03T02:08:08.383Z,38.47
2017-11-03T02:10:42.936Z,36.20
2017-11-03T02:13:17.744Z,40.80
2017-11-03T02:15:52.791Z,44.00
2017-11-03T02:18:26.964Z,35.97
2017-11-03T02:21:01.618Z,40.10
2017-11-03T02:23:35.670Z,37.33
2017-11-03T02:26:09.638Z,40.20
2017-11-03T02:28:43.567Z,40.70
2017-11-03T02:31:17.474Z,40.30
2017-11-03T02:33:52.094Z,37.17
2017-11-03T02:36:26.053Z,38.80
2017-11-03T02:39:00.866Z,35.40
2017-11-03T02:41:34.841Z,44.17
2017-11-03T02:44:09.986Z,34.97
2017-11-03T02:46:43.859Z,37.37
2017-11-03T02:49:18.303Z,36.77
2017-11-03T02:51:52.702Z,32.93
2017-11-03T02:54:27.468Z,34.03
2017-11-03T02:57:01.123Z,31.23
2017-11-03T02:59:35.266Z,38.10
2017-11-03T03:02:10.100Z,33.07
2017-11-03T03:04:43.809Z,36.63
2017-11-03T03:07:17.989Z,33.47
2017-11-03T03:09:52.209Z,34.90
2017-11-03T03:12:26.635Z,34.00
2017-11-03T03:15:01.768Z,36.13
2017-11-03T03:17:35.888Z,33.90
2017-11-03T03:20:10.243Z,38.73
2017-11-03T03:22:44.488Z,33.17
2017-11-03T03:25:19.002Z,35.03
2017-11-03T03:27:53.505Z,37.50
2017-11-03T03:30:27.353Z,40.67
2017-11-03T03:33:01.945Z,37.50
2017-11-03T03:35:37.033Z,37.73
2017-11-03T03:38:11.137Z,32.50
2017-11-03T03:40:45.736Z,33.70
2017-11-03T03:43:19.914Z,53.03
2017-11-03T03:45:53.775Z,41.30
2017-11-03T03:48:27.479Z,42.57
2017-11-03T03:51:02.049Z,40.33
2017-11-03T03:53:36.342Z,38.00
2017-11-03T03:56:10.798Z,42.20
2017-11-03T03:58:44.787Z,41.03
2017-11-03T04:01:20.039Z,37.07
2017-11-03T04:03:54.176Z,38.40
2017-11-03T04:06:28.236Z,39.90
2017-11-03T04:09:02.821Z,42.83
2017-11-03T04:11:36.769Z,41.27
2017-11-03T04:14:11.793Z,37.80
2017-11-03T04:16:45.809Z,39.90
2017-11-03T04:19:19.973Z,41.60
2017-11-03T04:21:54.448Z,37.63
2017-11-03T04:24:28.366Z,38.90
2017-11-03T04:27:03.171Z,42.60
2017-11-03T04:29:37.222Z,39.13
2017-11-03T04:32:12.019Z,37.23
2017-11-03T04:34:46.295Z,40.93
2017-11-03T04:37:20.933Z,43.30
2017-11-03T04:39:55.086Z,33.93
2017-11-03T04:42:30.292Z,38.70
2017-11-03T04:45:05.041Z,39.73
2017-11-03T04:47:39.444Z,39.50
2017-11-03T04:50:13.993Z,42.10
2017-11-03T04:52:48.047Z,42.73
2017-11-03T04:55:22.924Z,41.70
2017-11-03T04:57:57.467Z,36.43
2017-11-03T05:00:31.033Z,39.43
2017-11-03T05:03:05.169Z,42.80
2017-11-03T05:05:39.770Z,39.47
2017-11-03T05:08:14.286Z,35.70
2017-11-03T05:10:48.836Z,37.20
2017-11-03T05:13:23.342Z,35.97
2017-11-03T05:15:58.058Z,40.90
2017-11-03T05:18:32.897Z,39.47
2017-11-03T05:21:08.554Z,38.87
2017-11-03T05:23:42.280Z,35.83
2017-11-03T05:26:17.103Z,38.80
2017-11-03T05:28:50.997Z,41.73
2017-11-03T05:31:26.221Z,37.17
2017-11-03T05:34:00.736Z,40.60
2017-11-03T05:36:35.126Z,42.17
2017-11-03T05:39:09.105Z,35.27
2017-11-03T05:41:42.910Z,38.23
2017-11-03T05:44:18.028Z,34.73
2017-11-03T05:46:52.244Z,41.87
2017-11-03T05:49:26.130Z,45.30
2017-11-03T05:51:59.839Z,34.70
2017-11-03T05:54:34.473Z,38.80
2017-11-03T05:57:09.274Z,34.67
2017-11-03T05:59:43.388Z,41.27
2017-11-03T06:02:17.537Z,34.17
2017-11-03T06:04:52.309Z,39.33
2017-11-03T06:07:26.772Z,43.83
2017-11-03T06:10:01.487Z,37.63
2017-11-03T06:12:35.621Z,30.43
2017-11-03T06:15:09.314Z,33.87
2017-11-03T06:17:43.539Z,34.97
2017-11-03T06:20:17.841Z,33.40
2017-11-03T06:22:52.483Z,34.87
2017-11-03T06:25:27.308Z,37.13
2017-11-03T06:28:01.512Z,33.93
2017-11-03T06:30:35.574Z,32.67
2017-11-03T06:33:10.207Z,34.07
2017-11-03T06:35:43.838Z,36.97
2017-11-03T06:38:17.491Z,37.63
2017-11-03T06:40:51.578Z,33.40
2017-11-03T06:43:25.616Z,35.53
2017-11-03T06:46:00.522Z,49.27
2017-11-03T06:48:35.039Z,32.70
2017-11-03T06:51:09.102Z,34.10
2017-11-03T06:53:42.908Z,32.37
2017-11-03T06:56:17.312Z,30.03
2017-11-03T06:58:53.089Z,54.00
2017-11-03T07:01:26.835Z,39.93
2017-11-03T07:04:01.259Z,32.07
2017-11-03T07:06:35.570Z,35.30
2017-11-03T07:09:10.079Z,41.30
2017-11-03T07:11:43.958Z,33.90
2017-11-03T07:14:17.933Z,36.37
2017-11-03T07:16:51.894Z,33.90
2017-11-03T07:19:25.931Z,31.77
2017-11-03T07:21:59.934Z,33.70
2017-11-03T07:24:34.162Z,33.40
2017-11-03T07:27:08.675Z,35.30
2017-11-03T07:29:43.160Z,31.80
2017-11-03T07:32:17.159Z,31.40
2017-11-03T07:34:51.164Z,31.63
2017-11-03T07:37:25.852Z,26.00
2017-11-03T07:40:00.101Z,28.40
2017-11-03T07:42:34.054Z,28.40
2017-11-03T07:45:08.495Z,29.10
2017-11-03T07:47:43.230Z,32.00
2017-11-03T07:50:17.658Z,32.40
2017-11-03T07:52:51.813Z,32.23
2017-11-03T07:55:25.554Z,37.90
2017-11-03T07:57:59.432Z,24.67
2017-11-03T08:00:33.254Z,33.93
2017-11-03T08:03:07.118Z,31.83
2017-11-03T08:05:41.063Z,26.67
2017-11-03T08:08:15.667Z,28.63
2017-11-03T08:10:50.174Z,23.60
2017-11-03T08:13:24.456Z,28.43
2017-11-03T08:15:58.234Z,28.70
2017-11-03T08:18:32.970Z,28.40
2017-11-03T08:21:07.222Z,31.37
2017-11-03T08:23:41.202Z,29.30
2017-11-03T08:26:16.544Z,28.50
2017-11-03T08:28:51.569Z,43.93
2017-11-03T08:31:25.688Z,25.37
2017-11-03T08:34:00.277Z,22.73
2017-11-03T08:36:34.713Z,23.70
2017-11-03T08:39:10.507Z,18.53
2017-11-03T08:41:45.045Z,22.70
2017-11-03T08:44:19.732Z,24.07
2017-11-03T08:46:54.653Z,26.40
2017-11-03T08:49:30.324Z,22.93
2017-11-03T08:52:04.712Z,22.57
2017-11-03T08:54:39.660Z,21.77
2017-11-03T08:57:14.017Z,25.60
2017-11-03T08:59:48.501Z,24.53
2017-11-03T09:02:22.689Z,20.97
2017-11-03T09:04:56.487Z,19.33
2017-11-03T09:07:30.269Z,26.00
2017-11-03T09:10:04.114Z,19.73
2017-11-03T09:12:38.455Z,23.23
2017-11-03T09:15:13.456Z,24.50
2017-11-03T09:17:47.941Z,23.47
2017-11-03T09:20:23.049Z,26.10
2017-11-03T09:22:57.161Z,22.97
2017-11-03T09:25:30.927Z,24.50
2017-11-03T09:28:04.777Z,20.73
2017-11-03T09:30:38.715Z,23.63
2017-11-03T09:33:13.315Z,16.00
2017-11-03T09:35:48.136Z,18.37
2017-11-03T09:38:22.012Z,18.00
2017-11-03T09:40:55.932Z,17.63
2017-11-03T09:43:29.699Z,18.20
2017-11-03T09:46:04.496Z,17.20
2017-11-03T09:48:38.513Z,19.80
2017-11-03T09:51:12.553Z,18.10
2017-11-03T09:53:46.513Z,21.17
2017-11-03T09:56:20.117Z,24.53
2017-11-03T09:58:54.013Z,29.70
2017-11-03T10:01:28.702Z,21.80
2017-11-03T10:04:03.972Z,21.10
2017-11-03T10:06:37.652Z,23.80
2017-11-03T10:09:12.824Z,25.97
2017-11-03T10:11:48.125Z,26.63
2017-11-03T10:14:22.431Z,22.10
2017-11-03T10:16:56.304Z,22.53
2017-11-03T10:19:31.428Z,31.57
2017-11-03T10:22:05.049Z,27.73
2017-11-03T10:24:39.432Z,33.30
2017-11-03T10:27:14.584Z,29.70
2017-11-03T10:29:48.409Z,31.50
2017-11-03T10:32:23.949Z,32.60
2017-11-03T10:34:59.530Z,35.60
2017-11-03T10:37:35.421Z,34.33
2017-11-03T10:40:09.726Z,30.07
2017-11-03T10:42:43.476Z,33.17
2017-11-03T10:45:17.377Z,36.40
2017-11-03T10:47:51.356Z,33.63
2017-11-03T10:50:25.685Z,42.83
2017-11-03T10:53:01.060Z,36.80
2017-11-03T10:55:35.074Z,38.43
2017-11-03T10:58:09.002Z,37.37
2017-11-03T11:00:42.768Z,37.40
2017-11-03T11:03:17.484Z,35.83
2017-11-03T11:05:53.133Z,39.20
2017-11-03T11:08:27.434Z,37.57
2017-11-03T11:11:02.234Z,30.23
2017-11-03T11:13:36.329Z,34.57
2017-11-03T11:16:10.727Z,34.73
2017-11-03T11:18:45.231Z,34.53
2017-11-03T11:21:20.449Z,35.67
2017-11-03T11:23:54.879Z,33.00
2017-11-03T11:26:28.889Z,39.40
2017-11-03T11:29:03.525Z,32.40
2017-11-03T11:31:38.359Z,41.10
2017-11-03T11:34:12.279Z,44.70
2017-11-03T11:36:46.375Z,35.33
2017-11-03T11:39:21.396Z,43.00
2017-11-03T11:41:55.323Z,44.10
2017-11-03T11:44:29.829Z,68.77
2017-11-03T11:47:03.835Z,46.37
2017-11-03T11:49:38.454Z,38.70
2017-11-03T11:52:12.513Z,37.43
2017-11-03T11:54:47.409Z,40.53
2017-11-03T11:57:21.885Z,43.60
2017-11-03T11:59:56.287Z,48.60
2017-11-03T12:02:31.561Z,41.30
2017-11-03T12:05:06.479Z,43.27
2017-11-03T12:07:40.681Z,34.13
2017-11-03T12:10:14.653Z,43.90
2017-11-03T12:12:48.593Z,37.03
2017-11-03T12:15:23.604Z,41.57
2017-11-03T12:17:58.198Z,35.93
2017-11-03T12:20:32.697Z,32.70
2017-11-03T12:23:07.583Z,42.80
2017-11-03T12:25:41.929Z,43.33
2017-11-03T12:28:17.320Z,37.57
2017-11-03T12:30:52.207Z,35.93
2017-11-03T12:33:27.263Z,35.40
2017-11-03T12:36:01.413Z,29.63
2017-11-03T12:38:36.563Z,35.70
2017-11-03T12:41:10.646Z,33.80
2017-11-03T12:43:44.641Z,39.33
2017-11-03T12:46:18.893Z,27.67
2017-11-03T12:48:53.020Z,21.50
2017-11-03T12:51:26.923Z,30.37
2017-11-03T12:54:01.376Z,34.60
2017-11-03T12:56:36.828Z,31.07
2017-11-03T12:59:11.579Z,29.50
2017-11-03T13:01:46.071Z,39.47
2017-11-03T13:04:19.805Z,37.53
2017-11-03T13:06:54.842Z,32.13
2017-11-03T13:09:30.172Z,33.10
2017-11-03T13:12:05.002Z,31.97
2017-11-03T13:14:40.262Z,39.10
2017-11-03T13:17:15.185Z,33.70
2017-11-03T13:19:50.235Z,43.33
2017-11-03T13:22:24.793Z,39.90
2017-11-03T13:24:58.519Z,46.20
2017-11-03T13:27:32.800Z,42.33
2017-11-03T13:30:08.329Z,45.43
2017-11-03T13:32:46.474Z,49.03
2017-11-03T13:35:22.146Z,42.57
2017-11-03T13:37:58.807Z,54.20
2017-11-03T13:40:32.632Z,43.27
2017-11-03T13:43:07.921Z,43.70
2017-11-03T13:45:43.203Z,43.50
2017-11-03T13:48:18.256Z,47.17
2017-11-03T13:50:54.343Z,48.23
2017-11-03T13:53:29.602Z,46.40
2017-11-03T13:56:03.654Z,56.70
2017-11-03T13:58:37.450Z,56.10
2017-11-03T14:01:11.510Z,47.27
2017-11-03T14:03:46.435Z,47.00
2017-11-03T14:06:21.026Z,51.27
2017-11-03T14:08:56.020Z,46.90
2017-11-03T14:11:31.100Z,49.73
2017-11-03T14:14:05.557Z,53.43
2017-11-03T14:16:40.717Z,48.83
2017-11-03T14:19:16.033Z,57.83
2017-11-03T14:21:50.410Z,52.47
2017-11-03T14:24:24.298Z,53.77
2017-11-03T14:26:58.410Z,56.00
2017-11-03T14:29:32.649Z,60.13
2017-11-03T14:32:07.343Z,62.67
2017-11-03T14:34:41.487Z,50.97
2017-11-03T14:37:16.098Z,44.80
2017-11-03T14:39:50.205Z,57.67
2017-11-03T14:42:23.957Z,54.63
2017-11-03T14:44:58.573Z,48.83
2017-11-03T14:47:34.341Z,53.97
2017-11-03T14:50:08.913Z,49.90
2017-11-03T14:52:42.959Z,55.43
2017-11-03T14:55:17.993Z,58.00
2017-11-03T14:57:53.578Z,50.97
2017-11-03T15:00:28.629Z,58.63
2017-11-03T15:03:03.155Z,60.40
2017-11-03T15:05:38.074Z,55.30
2017-11-03T15:08:12.351Z,54.83
2017-11-03T15:10:47.629Z,51.20
2017-11-03T15:13:21.498Z,52.30
2017-11-03T15:15:55.297Z,62.17
2017-11-03T15:18:30.569Z,52.07
2017-11-03T15:21:05.326Z,60.33
2017-11-03T15:23:39.990Z,50.73
2017-11-03T15:26:15.853Z,54.43
2017-11-03T15:28:50.808Z,56.93
2017-11-03T15:31:25.206Z,57.43
2017-11-03T15:34:00.030Z,57.77
2017-11-03T15:36:34.663Z,58.97
2017-11-03T15:39:10.117Z,61.53
2017-11-03T15:41:46.328Z,58.17
2017-11-03T15:44:21.569Z,57.80
2017-11-03T15:46:57.125Z,48.67
2017-11-03T15:49:30.961Z,57.57
2017-11-03T15:52:05.474Z,50.23
2017-11-03T15:54:40.241Z,92.80
2017-11-03T15:57:18.698Z,55.10
2017-11-03T15:59:52.818Z,55.70
2017-11-03T16:02:28.257Z,52.50
2017-11-03T16:05:02.646Z,46.57
2017-11-03T16:07:37.920Z,45.63
2017-11-03T16:10:14.318Z,51.20
2017-11-03T16:12:48.957Z,53.57
2017-11-03T16:15:23.951Z,47.50
2017-11-03T16:17:58.071Z,37.50
2017-11-03T16:20:31.877Z,51.43
2017-11-03T16:23:06.447Z,49.03
2017-11-03T16:25:41.505Z,52.70
2017-11-03T16:28:16.366Z,46.63
2017-11-03T16:30:50.972Z,55.17
2017-11-03T16:33:25.543Z,66.57
2017-11-03T16:36:00.751Z,44.97
2017-11-03T16:38:35.068Z,54.80
2017-11-03T16:41:10.525Z,45.13
2017-11-03T16:43:44.625Z,50.67
2017-11-03T16:46:20.302Z,43.27
2017-11-03T16:48:54.172Z,52.57
2017-11-03T16:51:28.697Z,52.00
2017-11-03T16:54:03.742Z,49.10
2017-11-03T16:56:38.561Z,47.23
2017-11-03T16:59:13.295Z,49.17
2017-11-03T17:01:47.623Z,48.30
2017-11-03T17:04:22.752Z,47.83
2017-11-03T17:06:57.885Z,53.50
2017-11-03T17:09:34.049Z,54.03
2017-11-03T17:12:09.088Z,52.33
2017-11-03T17:14:43.851Z,45.37
2017-11-03T17:17:18.907Z,49.60
2017-11-03T17:19:53.486Z,52.53
2017-11-03T17:22:28.468Z,45.97
2017-11-03T17:25:03.071Z,56.73
2017-11-03T17:27:37.387Z,43.80
2017-11-03T17:30:11.456Z,48.13
2017-11-03T17:32:46.056Z,43.87
2017-11-03T17:35:21.609Z,57.20
2017-11-03T17:37:56.779Z,47.17
2017-11-03T17:40:31.405Z,49.50
2017-11-03T17:43:06.346Z,48.70
2017-11-03T17:45:40.605Z,51.13
2017-11-03T17:48:15.473Z,49.87
2017-11-03T17:50:49.915Z,52.63
2017-11-03T17:53:24.726Z,54.43
2017-11-03T17:55:59.148Z,49.57
2017-11-03T17:58:33.490Z,53.60
2017-11-03T18:01:08.229Z,48.73
2017-11-03T18:03:42.584Z,47.63
2017-11-03T18:06:17.205Z,51.80
2017-11-03T18:08:52.363Z,45.00
2017-11-03T18:11:26.376Z,43.30
2017-11-03T18:14:01.302Z,45.53
2017-11-03T18:16:35.884Z,50.03
2017-11-03T18:19:10.840Z,52.67
2017-11-03T18:21:45.689Z,48.90
2017-11-03T18:24:20.105Z,54.03
2017-11-03T18:26:55.730Z,51.00
2017-11-03T18:29:30.898Z,60.50
2017-11-03T18:32:05.183Z,45.80
2017-11-03T18:34:39.225Z,48.10
2017-11-03T18:37:13.704Z,49.90
2017-11-03T18:39:48.857Z,44.23
2017-11-03T18:42:23.315Z,46.23
2017-11-03T18:44:57.309Z,46.17
2017-11-03T18:47:31.627Z,53.50
2017-11-03T18:50:06.567Z,45.00
2017-11-03T18:52:41.337Z,53.60
2017-11-03T18:55:15.498Z,48.10
2017-11-03T18:57:49.547Z,51.07
2017-11-03T19:00:28.236Z,45.57
2017-11-03T19:03:05.981Z,52.30
2017-11-03T19:05:40.471Z,44.30
2017-11-03T19:08:16.106Z,44.03
2017-11-03T19:10:52.784Z,52.60
2017-11-03T19:13:27.689Z,48.90
2017-11-03T19:16:02.011Z,47.13
2017-11-03T19:18:36.747Z,54.67
2017-11-03T19:21:11.393Z,50.13
2017-11-03T19:23:45.228Z,51.37
2017-11-03T19:26:23.335Z,50.27
2017-11-03T19:28:58.953Z,51.20
2017-11-03T19:31:33.814Z,51.50
2017-11-03T19:34:09.074Z,52.07
2017-11-03T19:36:45.115Z,54.60
2017-11-03T19:39:20.187Z,53.13
2017-11-03T19:41:55.269Z,53.70
2017-11-03T19:44:31.228Z,52.50
2017-11-03T19:47:07.609Z,51.00
2017-11-03T19:49:41.221Z,54.37
2017-11-03T19:52:16.148Z,51.87
2017-11-03T19:54:50.664Z,51.50
2017-11-03T19:57:25.096Z,52.20
2017-11-03T19:59:59.827Z,53.93
2017-11-03T20:02:34.662Z,54.53
2017-11-03T20:05:09.512Z,57.70
2017-11-03T20:07:44.377Z,55.60
2017-11-03T20:10:18.123Z,53.43
2017-11-03T20:12:53.030Z,54.50
2017-11-03T20:15:28.741Z,63.30
2017-11-03T20:18:02.957Z,57.63
2017-11-03T20:20:38.885Z,47.23
2017-11-03T20:23:13.695Z,50.80
2017-11-03T20:25:48.940Z,58.50
2017-11-03T20:28:23.372Z,65.00
2017-11-03T20:30:57.406Z,60.00
2017-11-03T20:33:31.859Z,53.03
2017-11-03T20:36:05.845Z,58.17
2017-11-03T20:38:41.213Z,52.07
2017-11-03T20:41:15.448Z,57.10
2017-11-03T20:43:50.232Z,60.30
2017-11-03T20:46:24.999Z,56.43
2017-11-03T20:49:00.961Z,56.40
2017-11-03T20:51:35.544Z,52.40
2017-11-03T20:54:09.738Z,62.67
2017-11-03T20:56:44.146Z,57.13
2017-11-03T20:59:19.458Z,60.33
2017-11-03T21:01:54.582Z,63.90
2017-11-03T21:04:29.143Z,57.30
2017-11-03T21:07:03.228Z,61.00
2017-11-03T21:09:37.697Z,60.87
2017-11-03T21:12:13.049Z,60.30
2017-11-03T21:14:47.848Z,58.13
2017-11-03T21:17:22.025Z,63.63
2017-11-03T21:19:57.040Z,57.63
2017-11-03T21:22:31.052Z,65.27
2017-11-03T21:25:06.211Z,59.30
2017-11-03T21:27:41.606Z,60.20
2017-11-03T21:30:16.917Z,50.17
2017-11-03T21:32:51.469Z,62.33
2017-11-03T21:35:25.991Z,61.47
2017-11-03T21:37:59.849Z,55.83
2017-11-03T21:40:34.004Z,61.90
2017-11-03T21:43:08.577Z,61.70
2017-11-03T21:45:43.117Z,53.73
2017-11-03T21:48:17.297Z,69.23
2017-11-03T21:50:51.309Z,59.73
2017-11-03T21:53:26.295Z,66.53
2017-11-03T21:56:01.136Z,56.57
2017-11-03T21:58:35.605Z,60.57
2017-11-03T22:01:10.533Z,61.23
2017-11-03T22:03:45.227Z,58.87
2017-11-03T22:06:19.779Z,61.30
2017-11-03T22:08:54.228Z,60.80
2017-11-03T22:11:29.594Z,60.13
2017-11-03T22:14:03.451Z,59.80
2017-11-03T22:16:37.333Z,55.30
2017-11-03T22:19:12.414Z,51.70
2017-11-03T22:21:47.662Z,59.20
2017-11-03T22:24:22.002Z,60.63
2017-11-03T22:26:56.452Z,60.63
2017-11-03T22:29:30.845Z,57.43
2017-11-03T22:32:06.204Z,54.07
2017-11-03T22:34:41.629Z,54.27
2017-11-03T22:37:16.873Z,56.70
2017-11-03T22:39:51.661Z,61.60
2017-11-03T22:42:26.282Z,59.67
2017-11-03T22:45:01.439Z,54.07
2017-11-03T22:47:36.480Z,56.37
2017-11-03T22:50:10.897Z,59.77
2017-11-03T22:52:46.044Z,53.97
2017-11-03T22:55:20.305Z,60.43
2017-11-03T22:57:54.913Z,51.97
2017-11-03T23:00:29.379Z,58.73
2017-11-03T23:03:04.286Z,62.97
2017-11-03T23:05:38.015Z,60.23
2017-11-03T23:08:12.581Z,54.43
2017-11-03T23:10:47.689Z,56.97
2017-11-03T23:13:21.922Z,54.90
2017-11-03T23:15:57.838Z,56.30
2017-11-03T23:18:32.110Z,61.00
2017-11-03T23:21:06.600Z,63.63
2017-11-03T23:23:40.443Z,55.27
2017-11-03T23:26:14.295Z,68.30
2017-11-03T23:28:49.177Z,57.87
2017-11-03T23:31:23.647Z,56.63
2017-11-03T23:33:57.625Z,59.50
2017-11-03T23:36:32.521Z,58.00
2017-11-03T23:39:07.492Z,61.63
2017-11-03T23:41:41.154Z,54.47
2017-11-03T23:44:15.790Z,55.30
2017-11-03T23:46:51.605Z,63.27
2017-11-03T23:49:25.276Z,73.87
2017-11-03T23:51:59.914Z,68.87
2017-11-03T23:54:34.690Z,61.00
2017-11-03T23:57:09.253Z,53.37
2017-11-03T23:59:43.901Z,57.23
